createdAt,value
2019-06-07T00:00:39.721Z,20.21
2019-06-07T00:05:39.760Z,20.15
2019-06-07T00:10:46.033Z,20.09
2019-06-07T00:15:52.000Z,20.09
2019-06-07T00:20:57.978Z,20.05
2019-06-07T00:26:03.846Z,19.97
2019-06-07T00:31:11.538Z,19.83
2019-06-07T00:36:20.677Z,19.71
2019-06-07T00:41:26.462Z,19.70
2019-06-07T00:46:32.433Z,19.60
2019-06-07T00:51:50.058Z,19.56
2019-06-07T00:56:47.343Z,19.47
2019-06-07T01:01:53.319Z,19.41
2019-06-07T01:06:59.290Z,19.39
2019-06-07T01:12:05.567Z,19.30
2019-06-07T01:17:39.907Z,19.29
2019-06-07T01:22:32.458Z,19.26
2019-06-07T01:27:40.070Z,19.15
2019-06-07T01:32:46.038Z,19.06
2019-06-07T01:37:51.926Z,18.91
2019-06-07T01:42:57.892Z,18.90
2019-06-07T01:48:03.955Z,18.84
2019-06-07T01:53:10.023Z,18.78
2019-06-07T01:58:17.056Z,18.76
2019-06-07T02:03:26.965Z,18.65
2019-06-07T02:08:34.318Z,18.55
2019-06-07T02:13:38.824Z,18.59
2019-06-07T02:19:01.238Z,18.59
2019-06-07T02:23:52.725Z,18.63
2019-06-07T02:28:58.689Z,18.63
2019-06-07T02:34:04.698Z,18.70
2019-06-07T02:39:10.726Z,18.71
2019-06-07T02:44:16.902Z,18.68
2019-06-07T02:49:25.208Z,18.66
2019-06-07T02:54:36.168Z,18.64
2019-06-07T03:00:02.983Z,18.57
2019-06-07T03:04:46.929Z,18.52
2019-06-07T03:09:53.444Z,18.55
2019-06-07T03:15:00.201Z,18.54
2019-06-07T03:20:10.574Z,18.59
2019-06-07T03:25:16.543Z,18.86
2019-06-07T03:30:38.877Z,19.15
2019-06-07T03:35:32.350Z,19.52
2019-06-07T03:40:39.992Z,19.77
2019-06-07T03:45:45.648Z,19.66
2019-06-07T03:51:04.129Z,19.71
2019-06-07T03:55:59.128Z,19.63
2019-06-07T04:01:05.098Z,19.67
2019-06-07T04:06:11.086Z,19.78
2019-06-07T04:11:16.931Z,19.78
2019-06-07T04:16:24.138Z,19.85
2019-06-07T04:21:31.953Z,19.79
2019-06-07T04:26:43.183Z,19.87
2019-06-07T04:31:45.955Z,20.01
2019-06-07T04:36:59.023Z,20.02
2019-06-07T04:42:03.550Z,20.13
2019-06-07T04:47:10.415Z,20.15
2019-06-07T04:52:16.380Z,19.99
2019-06-07T04:57:22.628Z,20.31
2019-06-07T05:02:29.531Z,20.27
2019-06-07T05:07:37.904Z,20.37
2019-06-07T05:12:44.521Z,20.42
2019-06-07T05:17:51.146Z,20.59
2019-06-07T05:22:57.339Z,20.90
2019-06-07T05:28:03.419Z,21.11
2019-06-07T05:33:11.218Z,21.16
2019-06-07T05:38:17.448Z,21.07
2019-06-07T05:43:29.262Z,21.05
2019-06-07T05:48:36.640Z,20.86
2019-06-07T05:53:45.860Z,21.55
2019-06-07T05:58:49.851Z,21.72
2019-06-07T06:03:55.945Z,21.94
2019-06-07T06:09:13.333Z,22.11
2019-06-07T06:14:09.108Z,22.12
2019-06-07T06:19:15.283Z,22.16
2019-06-07T06:24:21.371Z,23.00
2019-06-07T06:29:27.447Z,23.11
2019-06-07T06:34:33.528Z,23.30
2019-06-07T06:39:39.649Z,23.84
2019-06-07T06:44:47.113Z,24.36
2019-06-07T06:49:54.396Z,24.85
2019-06-07T06:55:01.384Z,24.52
2019-06-07T07:00:10.722Z,24.68
2019-06-07T07:05:17.234Z,24.73
2019-06-07T07:10:28.302Z,25.23
2019-06-07T07:15:35.004Z,25.35
2019-06-07T07:20:43.510Z,25.14
2019-06-07T07:25:55.412Z,25.17
2019-06-07T07:30:57.301Z,25.17
2019-06-07T07:36:19.070Z,25.90
2019-06-07T07:41:15.543Z,26.52
2019-06-07T07:46:28.962Z,26.49
2019-06-07T07:51:26.110Z,26.45
2019-06-07T07:56:33.297Z,26.54
2019-06-07T08:01:39.164Z,26.44
2019-06-07T08:06:46.653Z,26.68
2019-06-07T08:11:59.984Z,26.77
2019-06-07T08:17:01.732Z,26.75
2019-06-07T08:22:08.899Z,26.45
2019-06-07T08:27:25.724Z,26.79
2019-06-07T08:32:23.107Z,26.78
2019-06-07T08:38:13.278Z,26.93
2019-06-07T08:42:58.774Z,26.67
2019-06-07T08:47:45.404Z,26.56
2019-06-07T08:52:54.753Z,27.25
2019-06-07T08:58:04.242Z,27.64
2019-06-07T09:03:07.715Z,27.60
2019-06-07T09:08:29.330Z,27.30
2019-06-07T09:13:21.545Z,27.32
2019-06-07T09:18:41.834Z,27.32
2019-06-07T09:23:35.696Z,27.49
2019-06-07T09:28:42.617Z,27.54
2019-06-07T09:33:48.892Z,27.65
2019-06-07T09:38:58.615Z,27.86
2019-06-07T09:44:18.962Z,27.74
2019-06-07T09:49:25.753Z,27.79
2019-06-07T09:59:26.802Z,28.18
2019-06-07T10:04:32.803Z,27.88
2019-06-07T10:10:11.815Z,28.09
2019-06-07T10:14:47.099Z,28.24
2019-06-07T10:19:53.136Z,28.46
2019-06-07T10:24:59.719Z,28.38
2019-06-07T10:30:08.391Z,28.57
2019-06-07T10:35:16.537Z,28.10
2019-06-07T10:40:23.070Z,28.03
2019-06-07T10:45:29.042Z,28.78
2019-06-07T10:50:35.009Z,29.34
2019-06-07T10:55:41.081Z,29.55
2019-06-07T11:00:47.052Z,28.94
2019-06-07T11:05:53.031Z,28.76
2019-06-07T11:10:58.992Z,29.10
2019-06-07T11:16:06.747Z,29.39
2019-06-07T11:21:14.206Z,29.97
2019-06-07T11:26:20.699Z,30.12
2019-06-07T11:31:26.665Z,29.59
2019-06-07T11:36:32.841Z,29.13
2019-06-07T11:41:38.812Z,29.06
2019-06-07T11:46:44.989Z,29.11
2019-06-07T11:51:50.963Z,30.08
2019-06-07T11:56:56.933Z,29.65
2019-06-07T12:02:02.811Z,29.62
2019-06-07T12:07:10.839Z,29.41
2019-06-07T12:12:16.689Z,29.63
2019-06-07T12:17:23.472Z,29.60
2019-06-07T12:22:29.447Z,29.93
2019-06-07T12:27:35.424Z,30.46
2019-06-07T12:32:41.320Z,30.22
2019-06-07T12:37:47.254Z,29.55
2019-06-07T12:42:53.185Z,29.20
2019-06-07T12:47:59.067Z,29.11
2019-06-07T12:53:06.089Z,29.16
2019-06-07T12:58:12.053Z,29.15
2019-06-07T13:03:20.847Z,29.68
2019-06-07T13:08:28.054Z,29.85
2019-06-07T13:13:34.270Z,29.49
2019-06-07T13:18:40.140Z,28.73
2019-06-07T13:23:46.209Z,28.17
2019-06-07T13:28:52.192Z,27.94
2019-06-07T13:33:57.953Z,27.82
2019-06-07T13:39:04.979Z,27.65
2019-06-07T13:44:10.910Z,27.50
2019-06-07T13:49:17.337Z,27.42
2019-06-07T13:54:24.741Z,27.38
2019-06-07T13:59:30.030Z,27.21
2019-06-07T14:04:35.923Z,27.08
2019-06-07T14:09:42.106Z,27.14
2019-06-07T14:14:48.052Z,27.22
2019-06-07T14:19:54.142Z,26.98
2019-06-07T14:25:00.015Z,26.18
2019-06-07T14:30:09.315Z,25.93
2019-06-07T14:35:15.841Z,26.21
2019-06-07T14:40:23.172Z,26.24
2019-06-07T14:45:29.782Z,26.58
2019-06-07T14:50:35.924Z,26.68
2019-06-07T14:55:41.981Z,26.88
2019-06-07T15:00:47.959Z,27.11
2019-06-07T15:05:53.897Z,27.04
2019-06-07T15:10:59.797Z,27.01
2019-06-07T15:16:05.861Z,27.11
2019-06-07T15:21:13.352Z,27.25
2019-06-07T15:26:19.460Z,27.41
2019-06-07T15:31:25.409Z,28.04
2019-06-07T15:36:32.325Z,28.60
2019-06-07T15:41:39.713Z,28.84
2019-06-07T15:46:46.086Z,29.13
2019-06-07T15:51:52.215Z,28.96
2019-06-07T15:56:59.251Z,28.96
2019-06-07T16:02:05.227Z,29.36
2019-06-07T16:07:11.101Z,30.07
2019-06-07T16:12:17.182Z,28.76
2019-06-07T16:17:23.141Z,28.77
2019-06-07T16:22:29.104Z,28.62
2019-06-07T16:27:36.727Z,27.88
2019-06-07T16:32:44.142Z,27.76
2019-06-07T16:37:52.106Z,27.59
2019-06-07T16:42:57.502Z,27.37
2019-06-07T16:48:03.469Z,27.02
2019-06-07T16:53:09.542Z,26.85
2019-06-07T16:58:15.416Z,26.65
2019-06-07T17:03:21.383Z,26.28
2019-06-07T17:08:27.247Z,26.34
2019-06-07T17:13:34.213Z,26.59
2019-06-07T17:18:40.944Z,26.36
2019-06-07T17:23:49.367Z,26.54
2019-06-07T17:28:55.217Z,26.52
2019-06-07T17:34:01.198Z,26.48
2019-06-07T17:39:09.631Z,26.34
2019-06-07T17:44:15.834Z,26.47
2019-06-07T17:49:23.616Z,26.34
2019-06-07T17:54:29.689Z,26.36
2019-06-07T17:59:35.559Z,26.42
2019-06-07T18:04:43.136Z,26.38
2019-06-07T18:09:51.638Z,26.44
2019-06-07T18:14:57.561Z,25.76
2019-06-07T18:20:05.084Z,25.36
2019-06-07T18:25:10.520Z,25.33
2019-06-07T18:30:16.383Z,25.14
2019-06-07T18:35:22.380Z,24.89
2019-06-07T18:40:28.447Z,24.57
2019-06-07T18:45:34.516Z,24.41
2019-06-07T18:50:40.588Z,24.06
2019-06-07T18:55:47.726Z,23.77
2019-06-07T19:00:53.898Z,23.55
2019-06-07T19:05:59.838Z,23.22
2019-06-07T19:11:05.801Z,23.25
2019-06-07T19:16:11.767Z,23.10
2019-06-07T19:21:17.638Z,22.83
2019-06-07T19:26:23.528Z,22.82
2019-06-07T19:31:29.525Z,22.59
2019-06-07T19:36:47.966Z,22.38
2019-06-07T19:41:43.163Z,22.35
2019-06-07T19:46:56.366Z,22.31
2019-06-07T19:52:03.234Z,22.25
2019-06-07T19:57:09.433Z,22.09
2019-06-07T20:02:16.414Z,21.91
2019-06-07T20:07:22.396Z,21.59
2019-06-07T20:12:28.294Z,21.21
2019-06-07T20:17:34.228Z,21.16
2019-06-07T20:22:40.297Z,21.05
2019-06-07T20:27:46.473Z,20.99
2019-06-07T20:32:52.464Z,20.96
2019-06-07T20:37:58.925Z,20.83
2019-06-07T20:43:05.766Z,20.66
2019-06-07T20:48:12.307Z,20.60
2019-06-07T20:53:18.386Z,20.35
2019-06-07T20:58:25.281Z,20.24
2019-06-07T21:03:31.243Z,20.26
2019-06-07T21:08:37.207Z,20.39
2019-06-07T21:13:43.633Z,20.52
2019-06-07T21:18:49.616Z,20.63
2019-06-07T21:23:55.632Z,20.32
2019-06-07T21:29:03.245Z,20.32
2019-06-07T21:34:12.116Z,20.33
2019-06-07T21:39:17.034Z,20.22
2019-06-07T21:44:23.202Z,20.08
2019-06-07T21:49:29.713Z,19.99
2019-06-07T21:54:35.654Z,19.90
2019-06-07T21:59:41.725Z,19.95
2019-06-07T22:04:47.595Z,20.01
2019-06-07T22:09:53.670Z,19.99
2019-06-07T22:14:59.641Z,19.94
2019-06-07T22:20:08.663Z,19.77
2019-06-07T22:25:15.883Z,19.81
2019-06-07T22:30:22.402Z,19.92
2019-06-07T22:35:28.334Z,19.80
2019-06-07T22:40:34.611Z,19.79
2019-06-07T22:45:41.401Z,19.72
2019-06-07T22:50:48.909Z,19.63
2019-06-07T22:55:56.677Z,19.50
2019-06-07T23:01:02.797Z,19.37
2019-06-07T23:06:08.867Z,19.31
2019-06-07T23:11:15.202Z,19.27
2019-06-07T23:16:21.330Z,19.08
2019-06-07T23:21:27.407Z,19.03
2019-06-07T23:26:33.468Z,18.88
2019-06-07T23:31:39.305Z,18.86
2019-06-07T23:36:45.307Z,18.68
2019-06-07T23:41:51.498Z,18.54
2019-06-07T23:47:10.413Z,18.46
2019-06-07T23:52:05.313Z,18.55
2019-06-07T23:57:12.136Z,18.27
